createdAt,value
2022-11-05T00:05:07.842Z,2.40
2022-11-05T00:10:35.736Z,2.50
2022-11-05T00:16:15.798Z,2.33
2022-11-05T00:21:52.739Z,2.75
2022-11-05T00:27:18.717Z,2.65
2022-11-05T00:32:45.757Z,2.50
2022-11-05T00:38:10.733Z,2.50
2022-11-05T00:43:47.860Z,2.50
2022-11-05T00:49:36.790Z,2.67
2022-11-05T00:55:01.745Z,2.45
2022-11-05T01:00:27.781Z,2.67
2022-11-05T01:05:58.767Z,2.53
2022-11-05T01:11:39.763Z,2.70
2022-11-05T01:17:03.725Z,2.60
2022-11-05T01:22:31.760Z,2.55
2022-11-05T01:27:55.862Z,2.65
2022-11-05T01:33:20.782Z,2.58
2022-11-05T01:38:47.805Z,2.88
2022-11-05T01:44:12.789Z,2.58
2022-11-05T01:49:44.751Z,2.88
2022-11-05T01:55:13.761Z,2.75
2022-11-05T02:00:37.783Z,2.90
2022-11-05T02:06:04.761Z,3.00
2022-11-05T02:11:34.800Z,3.33
2022-11-05T02:17:06.795Z,2.70
2022-11-05T02:22:56.794Z,3.17
2022-11-05T02:28:52.781Z,3.17
2022-11-05T02:34:30.804Z,3.30
2022-11-05T02:40:02.810Z,3.47
2022-11-05T02:45:36.777Z,3.58
2022-11-05T02:51:11.941Z,3.85
2022-11-05T02:56:41.920Z,3.90
2022-11-05T03:02:07.928Z,3.20
2022-11-05T03:07:48.958Z,2.97
2022-11-05T03:13:25.801Z,2.70
2022-11-05T03:18:59.779Z,3.10
2022-11-05T03:24:30.811Z,3.03
2022-11-05T03:29:58.825Z,2.97
2022-11-05T03:35:27.799Z,3.17
2022-11-05T03:40:56.813Z,3.20
2022-11-05T03:46:26.824Z,3.60
2022-11-05T03:51:57.807Z,4.15
2022-11-05T03:57:30.877Z,5.40
2022-11-05T04:02:54.987Z,6.65
2022-11-05T04:08:31.820Z,5.35
2022-11-05T04:13:58.900Z,4.88
2022-11-05T04:19:43.821Z,4.40
2022-11-05T04:25:07.833Z,4.07
2022-11-05T04:30:35.817Z,4.55
2022-11-05T04:36:01.862Z,5.18
2022-11-05T04:41:26.853Z,5.00
2022-11-05T04:46:53.857Z,5.65
2022-11-05T04:52:18.865Z,6.35
2022-11-05T04:57:50.857Z,6.90
2022-11-05T05:03:17.837Z,7.28
2022-11-05T05:08:41.858Z,7.90
2022-11-05T05:14:06.859Z,7.75
2022-11-05T05:19:33.855Z,7.13
2022-11-05T05:24:58.880Z,6.82
2022-11-05T05:30:24.864Z,5.53
2022-11-05T05:35:51.851Z,5.53
2022-11-05T05:41:16.860Z,5.63
2022-11-05T05:46:41.870Z,5.30
2022-11-05T05:52:08.894Z,5.55
2022-11-05T05:57:33.893Z,5.45
2022-11-05T06:02:58.963Z,6.30
2022-11-05T06:08:26.876Z,5.90
2022-11-05T06:13:51.917Z,6.50
2022-11-05T06:19:16.889Z,6.85
2022-11-05T06:24:44.887Z,7.07
2022-11-05T06:30:09.960Z,7.65
2022-11-05T06:35:33.937Z,7.55
2022-11-05T06:41:05.804Z,10.30
2022-11-05T06:46:32.906Z,10.30
2022-11-05T06:51:57.917Z,10.25
2022-11-05T06:57:31.901Z,11.43
2022-11-05T07:02:57.065Z,11.43
2022-11-05T07:08:21.908Z,13.15
2022-11-05T07:13:49.932Z,14.63
2022-11-05T07:19:13.914Z,15.13
2022-11-05T07:24:38.906Z,13.70
2022-11-05T07:30:05.975Z,12.77
2022-11-05T07:35:31.109Z,11.10
2022-11-05T07:40:54.918Z,9.88
2022-11-05T07:46:21.924Z,10.45
2022-11-05T07:51:45.933Z,10.90
2022-11-05T07:57:18.287Z,12.27
2022-11-05T08:02:45.113Z,11.20
2022-11-05T08:08:09.956Z,11.05
2022-11-05T08:13:34.965Z,11.40
2022-11-05T08:19:01.923Z,11.10
2022-11-05T08:24:26.948Z,10.10
2022-11-05T08:29:53.534Z,10.55
2022-11-05T08:35:20.958Z,10.25
2022-11-05T08:40:46.965Z,9.98
2022-11-05T08:46:13.252Z,10.80
2022-11-05T08:51:39.920Z,10.48
2022-11-05T08:57:10.938Z,7.72
2022-11-05T09:02:36.040Z,6.37
2022-11-05T09:08:02.974Z,6.30
2022-11-05T09:13:28.157Z,5.38
2022-11-05T09:18:51.984Z,5.85
2022-11-05T09:24:19.968Z,4.15
2022-11-05T09:29:43.960Z,3.95
2022-11-05T09:35:08.975Z,4.00
2022-11-05T09:40:37.974Z,3.33
2022-11-05T09:46:07.986Z,3.40
2022-11-05T09:51:32.961Z,3.30
2022-11-05T09:57:07.971Z,2.67
2022-11-05T10:02:38.088Z,2.22
2022-11-05T10:08:06.012Z,2.35
2022-11-05T10:13:49.833Z,2.63
2022-11-05T10:19:20.010Z,2.50
2022-11-05T10:24:46.111Z,2.33
2022-11-05T10:30:12.992Z,2.45
2022-11-05T10:35:41.000Z,1.52
2022-11-05T10:41:21.058Z,1.70
2022-11-05T10:46:56.598Z,1.73
2022-11-05T10:52:37.006Z,1.95
2022-11-05T10:58:04.010Z,1.70
2022-11-05T11:03:51.026Z,2.00
2022-11-05T11:09:27.421Z,2.10
2022-11-05T11:14:51.017Z,1.80
2022-11-05T11:20:41.020Z,2.00
2022-11-05T11:26:08.061Z,1.95
2022-11-05T11:31:35.021Z,2.08
2022-11-05T11:37:05.027Z,2.03
2022-11-05T11:42:35.066Z,2.05
2022-11-05T11:48:03.023Z,1.83
2022-11-05T11:53:44.105Z,1.50
2022-11-05T11:59:10.064Z,1.60
2022-11-05T12:05:01.078Z,1.50
2022-11-05T12:10:39.190Z,1.47
2022-11-05T12:16:07.053Z,1.58
2022-11-05T12:21:52.539Z,1.50
2022-11-05T12:27:33.046Z,1.30
2022-11-05T12:33:16.653Z,1.33
2022-11-05T12:39:05.223Z,1.60
2022-11-05T12:44:45.116Z,1.35
2022-11-05T12:50:20.249Z,1.67
2022-11-05T12:55:48.919Z,1.52
2022-11-05T13:01:29.185Z,1.38
2022-11-05T13:06:59.059Z,1.70
2022-11-05T13:12:28.396Z,1.50
2022-11-05T13:18:03.102Z,1.50
2022-11-05T13:23:33.077Z,1.60
2022-11-05T13:29:05.126Z,1.48
2022-11-05T13:34:37.297Z,1.70
2022-11-05T13:40:06.123Z,1.23
2022-11-05T13:46:05.846Z,1.40
2022-11-05T13:51:46.081Z,1.40
2022-11-05T13:57:25.081Z,1.40
2022-11-05T14:02:59.090Z,1.10
2022-11-05T14:08:31.211Z,1.10
2022-11-05T14:13:59.360Z,1.27
2022-11-05T14:19:42.124Z,1.48
2022-11-05T14:25:10.118Z,1.10
2022-11-05T14:30:53.359Z,1.30
2022-11-05T14:36:44.106Z,1.30
2022-11-05T14:42:23.147Z,2.97
2022-11-05T14:47:51.133Z,4.32
2022-11-05T14:53:33.147Z,2.00
2022-11-05T14:59:02.180Z,1.45
2022-11-05T15:04:34.319Z,1.25
2022-11-05T15:10:07.232Z,1.35
2022-11-05T15:15:41.203Z,1.30
2022-11-05T15:21:11.288Z,1.30
2022-11-05T15:26:46.156Z,1.20
2022-11-05T15:32:14.188Z,1.48
2022-11-05T15:37:50.364Z,1.35
2022-11-05T15:43:27.182Z,1.40
2022-11-05T15:48:56.169Z,1.70
2022-11-05T15:54:31.085Z,2.10
2022-11-05T15:59:55.161Z,1.88
2022-11-05T16:05:25.217Z,2.42
2022-11-05T16:10:53.215Z,1.77
2022-11-05T16:16:34.187Z,1.90
2022-11-05T16:22:11.246Z,1.67
2022-11-05T16:27:36.190Z,1.95
2022-11-05T16:33:00.174Z,2.00
2022-11-05T16:38:29.201Z,2.45
2022-11-05T16:43:53.285Z,2.88
2022-11-05T16:49:20.190Z,3.13
2022-11-05T16:54:47.179Z,2.45
2022-11-05T17:00:13.243Z,2.30
2022-11-05T17:05:40.191Z,3.10
2022-11-05T17:11:08.186Z,2.30
2022-11-05T17:16:35.196Z,2.15
2022-11-05T17:22:00.250Z,2.50
2022-11-05T17:27:28.186Z,2.17
2022-11-05T17:32:53.283Z,2.13
2022-11-05T17:38:17.219Z,2.00
2022-11-05T17:43:45.620Z,2.20
2022-11-05T17:49:09.388Z,2.30
2022-11-05T17:54:34.246Z,2.10
2022-11-05T18:00:01.201Z,2.42
2022-11-05T18:05:29.245Z,2.78
2022-11-05T18:10:54.239Z,2.45
2022-11-05T18:16:22.263Z,2.75
2022-11-05T18:21:47.250Z,2.90
2022-11-05T18:27:12.270Z,2.85
2022-11-05T18:32:39.470Z,2.50
2022-11-05T18:38:04.224Z,2.67
2022-11-05T18:43:29.275Z,2.60
2022-11-05T18:48:57.518Z,3.38
2022-11-05T18:54:22.261Z,3.08
2022-11-05T18:59:48.280Z,2.60
2022-11-05T19:05:28.440Z,2.90
2022-11-05T19:10:58.257Z,2.80
2022-11-05T19:16:25.228Z,2.70
2022-11-05T19:21:53.294Z,2.80
2022-11-05T19:27:19.261Z,2.83
2022-11-05T19:32:44.273Z,2.70
2022-11-05T19:38:18.260Z,3.00
2022-11-05T19:43:43.282Z,2.70
2022-11-05T19:49:08.333Z,2.97
2022-11-05T19:54:36.297Z,2.50
2022-11-05T20:00:00.306Z,2.65
2022-11-05T20:05:28.668Z,2.80
2022-11-05T20:10:55.290Z,2.80
2022-11-05T20:16:30.289Z,2.78
2022-11-05T20:21:54.307Z,2.78
2022-11-05T20:27:22.273Z,2.63
2022-11-05T20:32:47.306Z,2.30
2022-11-05T20:38:12.678Z,2.40
2022-11-05T20:43:41.310Z,2.58
2022-11-05T20:49:06.278Z,2.30
2022-11-05T20:54:31.301Z,2.22
2022-11-05T20:59:58.315Z,2.08
2022-11-05T21:05:23.436Z,2.40
2022-11-05T21:10:51.255Z,2.38
2022-11-05T21:16:22.308Z,2.20
2022-11-05T21:21:47.312Z,2.37
2022-11-05T21:27:11.296Z,2.30
2022-11-05T21:32:39.320Z,2.72
2022-11-05T21:38:03.323Z,2.90
2022-11-05T21:43:28.312Z,3.05
2022-11-05T21:48:55.323Z,3.35
2022-11-05T21:54:33.328Z,2.92
2022-11-05T21:59:58.348Z,3.13
2022-11-05T22:05:26.340Z,3.10
2022-11-05T22:10:50.352Z,2.60
2022-11-05T22:16:16.344Z,2.92
2022-11-05T22:21:44.351Z,2.90
2022-11-05T22:27:11.341Z,2.70
2022-11-05T22:32:35.324Z,2.83
2022-11-05T22:38:03.376Z,3.00
2022-11-05T22:43:27.363Z,3.25
2022-11-05T22:48:59.355Z,3.22
2022-11-05T22:54:27.342Z,3.30
2022-11-05T22:59:51.367Z,3.35
2022-11-05T23:05:17.455Z,3.35
2022-11-05T23:10:57.506Z,3.70
2022-11-05T23:16:34.345Z,3.50
2022-11-05T23:22:11.357Z,3.30
2022-11-05T23:27:43.356Z,3.40
2022-11-05T23:33:08.370Z,3.35
2022-11-05T23:38:45.492Z,2.92
2022-11-05T23:44:25.389Z,3.25
2022-11-05T23:49:50.380Z,3.58
2022-11-05T23:55:14.419Z,3.67
